首页
METAR-TAF:

METAR-TAF

机场 :

卢森堡, 卢森堡

卢森堡-芬德尔国际机场

纬度: 49-37N, 经度: 006-13E, 海拔: 376米

当前天气观测

该预报发布于24分钟前的01:20 UTC
风速12节,风向西
温度 3°C
湿度 93%
气压 1005 hPa
能见度10公里或以上

METAR: ELLX 190120Z AUTO 26012KT 9999 FEW010/// BKN012/// BKN015/// 03/02 Q1005 NOSIG

时间: 02:44 (01:44 UTC)

预报

该预报发布于2小时和44分钟前的23:00 UTC
预报有效从19日的 00点(UTC)到 20日的 06点(UTC)
风速10节,风向西,有时为20节阵风
能见度10公里或以上
散云层高于1500英尺
短暂存在
从 19日的 00点(UTC)到 19日的 06点(UTC)
能見度: 5000
多云层高于1600英尺, 塔状积云.
小阵雨, 雪
短暂存在
从 19日的 18点(UTC)到 20日的 06点(UTC)
能見度: 4000
散云层高于800英尺
多云层高于1000英尺
小阵雪

TAF: ELLX 182300Z 1900/2006 26010G20KT 9999 SCT015 TEMPO 1900/1906 5000 -SHRASN BKN016TCU TEMPO 1918/2006 4000 -SHSN SCT008 BKN010

超过4000个机场的气象观测和天气预报(METAR&TAF报告)。

可查询的气象台以黄色和红色小点在地图上表示。

将鼠标移到小点上方,可查看气象台名称。

然后点击查看天气观测和预报。

如需切换地图:点击带黑十字的绿色按钮放大地图;点击带横线的绿色按钮缩小地图;或者点击绿色箭头查看邻近地区的地图。


METAR-TAF: